KBJJ/BJJ METAR and TAF weather

Enter ICAO airport designator
Station Type Date Time Source
KBJJ METAR 2024/04/18 07:56 UTC NOAA

KBJJ 180756Z AUTO 27010KT 10SM OVC037 13/09 A2995 RMK AO2 SLP139 T01330089


Station Type Date Time Source
KBJJ Decoded METAR 2024/04/18 07:56 UTC NOAA

WOOSTER WAYNE COUNTY AIRPORT, OH, United States (KBJJ) 40-52N 81-53W 343M
Apr 18, 2024 - 03:56 AM EDT / 2024.04.18 0756 UTC
Wind: from the W (270 degrees) at 12 MPH (10 KT):0
Visibility: 10 mile(s):0
Sky conditions: overcast
Temperature: 55.9 F (13.3 C)
Dew Point: 48.0 F (8.9 C)
Relative Humidity: 74%
Pressure (altimeter): 29.95 in. Hg (1014 hPa)
ob: KBJJ 180756Z AUTO 27010KT 10SM OVC037 13/09 A2995 RMK AO2 SLP139 T01330089
cycle: 8

Station Type Date Time Source
KBJJ TAF UTC NOAA

Error!

Example: see airport list